Time;durP1;ratioP1;P1;durP2;ratioP2;P2;SDS_P1;SDS_P2;PMS_P1;PMS_P2;Temp;Humidity;BMP_temperature;BMP_pressure;BME280_temperature;BME280_humidity;BME280_pressure;Samples;Min_cycle;Max_cycle;Signal;HPM_P1;HPM_P2
2022/06/24 00:00:15;;;;;;;6.08;2.67;;;;;;;18.65;51.04;100829.52;1689256;84;20918;-80
2022/06/24 00:02:49;;;;;;;2.87;2.62;;;;;;;18.63;51.10;100824.35;1653651;85;20974;-80
2022/06/24 00:05:16;;;;;;;9.00;2.72;;;;;;;18.60;51.13;100828.42;1690714;83;20934;-80
2022/06/24 00:07:49;;;;;;;7.95;2.80;;;;;;;18.57;51.15;100827.22;1687245;84;20991;-80
2022/06/24 00:10:34;;;;;;;3.45;2.87;;;;;;;18.53;51.28;100824.34;1657411;86;20976;-80
2022/06/24 00:13:01;;;;;;;4.50;3.00;;;;;;;18.48;51.26;100827.17;1710918;83;21920;-80
2022/06/24 00:15:30;;;;;;;;;;;;;;;18.39;51.36;100826.73;1705788;84;20879;-80
2022/06/24 00:17:58;;;;;;;4.08;3.10;;;;;;;18.38;51.97;100828.97;1688897;84;20109;-80
2022/06/24 00:20:24;;;;;;;4.17;3.62;;;;;;;18.39;51.58;100828.89;1666047;85;20931;-79
2022/06/24 00:22:52;;;;;;;3.87;3.17;;;;;;;18.38;51.59;100835.05;1692803;83;20942;-80
2022/06/24 00:25:25;;;;;;;3.95;3.00;;;;;;;18.36;51.70;100834.27;1688331;84;20939;-80
2022/06/24 00:28:10;;;;;;;7.37;3.25;;;;;;;18.30;51.63;100842.39;1701134;84;20935;-80
2022/06/24 00:30:53;;;;;;;4.12;2.80;;;;;;;18.22;51.77;100834.48;1695923;83;20875;-80
2022/06/24 00:33:22;;;;;;;3.62;2.80;;;;;;;18.17;51.88;100839.95;1706791;84;20935;-80
2022/06/24 00:35:52;;;;;;;3.87;2.75;;;;;;;18.14;51.93;100840.09;1701303;83;20922;-80
2022/06/24 00:38:25;;;;;;;3.35;2.52;;;;;;;18.14;52.06;100841.39;1674586;84;20946;-80
2022/06/24 00:41:02;;;;;;;3.55;3.25;;;;;;;18.14;52.12;100840.94;1706125;83;20940;-80
2022/06/24 00:43:36;;;;;;;3.02;2.80;;;;;;;18.10;52.18;100842.45;1701166;82;20879;-80
2022/06/24 00:46:14;;;;;;;3.45;2.80;;;;;;;18.07;52.29;100842.12;1693795;83;20977;-80
2022/06/24 00:48:50;;;;;;;3.60;2.67;;;;;;;18.09;52.43;100840.28;1706496;84;20974;-80
2022/06/24 00:51:18;;;;;;;3.52;3.12;;;;;;;18.11;52.46;100838.45;1678726;85;20897;-80
2022/06/24 00:53:48;;;;;;;3.75;3.08;;;;;;;18.07;52.52;100837.34;1700613;84;20912;-80
2022/06/24 00:56:18;;;;;;;4.72;3.20;;;;;;;18.04;52.58;100836.16;1656488;85;20909;-80
2022/06/24 00:59:01;;;;;;;6.75;2.85;;;;;;;18.03;52.72;100837.08;1685330;84;21010;-80
2022/06/24 01:01:36;;;;;;;3.00;2.70;;;;;;;18.04;52.77;100842.25;1698819;83;20923;-80
2022/06/24 01:04:09;;;;;;;4.55;2.87;;;;;;;18.02;52.85;100834.92;1684588;85;20941;-79
2022/06/24 01:06:39;;;;;;;3.20;3.00;;;;;;;17.98;52.86;100833.81;1700440;84;20980;-79
2022/06/24 01:09:07;;;;;;;3.37;3.08;;;;;;;17.91;52.94;100834.99;1669986;84;20938;-79
2022/06/24 01:11:36;;;;;;;3.00;2.70;;;;;;;17.86;53.08;100841.72;1684882;84;20937;-79
2022/06/24 01:14:04;;;;;;;6.85;3.20;;;;;;;17.87;53.21;100844.73;1692314;83;20934;-79
2022/06/24 01:16:30;;;;;;;4.92;2.45;;;;;;;17.77;53.16;100845.58;1696311;83;20970;-80
2022/06/24 01:19:01;;;;;;;4.08;3.08;;;;;;;17.68;53.27;100842.49;1698164;83;20888;-80
2022/06/24 01:21:43;;;;;;;5.40;3.40;;;;;;;17.63;53.39;100841.83;1699446;84;20951;-80
2022/06/24 01:24:12;;;;;;;3.47;3.17;;;;;;;17.60;53.54;100838.04;1683953;84;20921;-80
2022/06/24 01:26:41;;;;;;;4.60;3.27;;;;;;;17.55;53.55;100840.84;1693488;83;20906;-80
2022/06/24 01:29:08;;;;;;;3.52;3.17;;;;;;;17.54;53.65;100833.91;1670949;84;20925;-80
2022/06/24 01:31:34;;;;;;;3.92;3.12;;;;;;;17.56;53.69;100829.92;1681485;83;20938;-80
2022/06/24 01:34:00;;;;;;;3.70;3.33;;;;;;;17.51;53.75;100832.27;1695583;83;20880;-79
2022/06/24 01:36:30;;;;;;;3.52;3.20;;;;;;;17.50;53.87;100828.41;1690417;84;20950;-79
2022/06/24 01:38:56;;;;;;;3.97;3.20;;;;;;;17.52;53.95;100830.51;1674433;85;20926;-79
2022/06/24 01:41:22;;;;;;;4.90;3.17;;;;;;;17.49;54.01;100823.64;1706020;83;20933;-79
2022/06/24 01:43:48;;;;;;;5.87;3.43;;;;;;;17.50;54.03;100824.48;1684411;83;20891;-79
2022/06/24 01:46:14;;;;;;;4.13;3.57;;;;;;;17.47;54.10;100824.16;1659054;85;20902;-80
2022/06/24 01:48:40;;;;;;;4.17;3.85;;;;;;;17.46;54.16;100818.53;1690884;84;20999;-80
2022/06/24 01:51:09;;;;;;;7.67;4.53;;;;;;;17.43;54.22;100818.66;1694295;83;20959;-80
2022/06/24 01:53:36;;;;;;;4.55;3.80;;;;;;;17.42;54.36;100813.04;1688613;84;20946;-80
2022/06/24 01:56:02;;;;;;;7.97;4.95;;;;;;;17.44;54.41;100813.83;1698439;84;20946;-80
2022/06/24 01:58:28;;;;;;;4.37;3.92;;;;;;;17.44;54.41;100811.22;1679370;84;20971;-80
2022/06/24 02:00:55;;;;;;;4.85;4.00;;;;;;;17.41;54.50;100815.72;1679158;85;20930;-80
2022/06/24 02:03:21;;;;;;;8.53;4.28;;;;;;;17.40;54.59;100818.78;1683865;84;20925;-79
2022/06/24 02:05:47;;;;;;;3.90;3.60;;;;;;;17.40;54.65;100813.56;1684519;84;20918;-80
2022/06/24 02:08:14;;;;;;;5.87;4.12;;;;;;;17.41;54.73;100815.27;1678662;84;20943;-79
2022/06/24 02:13:32;;;;;;;5.22;3.65;;;;;;;17.38;54.76;100831.52;1694509;83;21002;-79
2022/06/24 02:16:04;;;;;;;6.73;4.40;;;;;;;17.38;54.83;100832.83;1707022;84;20927;-79
2022/06/24 02:18:32;;;;;;;4.03;3.62;;;;;;;17.35;54.85;100831.65;1696258;83;20907;-80
2022/06/24 02:21:00;;;;;;;7.37;3.42;;;;;;;17.30;54.87;100834.91;1688970;83;20915;-80
2022/06/24 02:23:26;;;;;;;;;;;;;;;17.24;54.94;100828.16;1701540;84;21380;-80
2022/06/24 02:25:54;;;;;;;3.90;3.60;;;;;;;17.18;55.55;100829.25;1706796;84;20667;-80
2022/06/24 02:28:22;;;;;;;4.50;4.05;;;;;;;17.09;55.09;100827.03;1697967;83;20908;-80
2022/06/24 02:30:54;;;;;;;3.90;3.50;;;;;;;17.08;55.26;100828.40;1678372;84;20939;-80
2022/06/24 02:33:20;;;;;;;4.28;3.87;;;;;;;17.06;55.31;100829.77;1678381;85;20916;-80
2022/06/24 02:35:47;;;;;;;3.60;3.25;;;;;;;17.05;55.41;100827.22;1675287;84;20909;-80
2022/06/24 02:38:13;;;;;;;;;;;;;;;17.00;55.46;100827.39;1683923;84;20886;-80
2022/06/24 02:40:45;;;;;;;10.10;4.10;;;;;;;16.91;56.05;100827.75;1679332;85;20178;-80
2022/06/24 02:43:22;;;;;;;4.12;3.72;;;;;;;16.82;55.64;100825.03;1676001;83;21476;-79
2022/06/24 02:46:02;;;;;;;10.85;3.65;;;;;;;16.82;55.66;100822.88;1685134;84;20916;-79
2022/06/24 02:48:30;;;;;;;5.97;4.17;;;;;;;16.81;55.77;100827.70;1706557;83;20963;-79
2022/06/24 02:50:59;;;;;;;4.85;3.72;;;;;;;16.81;55.85;100827.70;1689968;83;20959;-79
2022/06/24 02:53:28;;;;;;;4.22;3.77;;;;;;;16.80;55.85;100828.16;1687930;83;20906;-79
2022/06/24 02:56:06;;;;;;;4.65;3.92;;;;;;;16.78;55.91;100826.52;1692002;82;20946;-80
2022/06/24 02:58:36;;;;;;;4.80;3.58;;;;;;;16.77;56.02;100824.36;1634063;85;21450;-80
2022/06/24 03:01:03;;;;;;;6.80;3.80;;;;;;;16.79;56.09;100819.08;1675182;84;26520;-79
2022/06/24 03:03:30;;;;;;;4.17;3.37;;;;;;;16.83;56.18;100824.13;1678559;84;20964;-79
2022/06/24 03:05:56;;;;;;;6.92;4.05;;;;;;;16.88;56.23;100823.49;1654423;85;20885;-80
2022/06/24 03:08:25;;;;;;;4.00;3.47;;;;;;;16.92;56.25;100819.00;1709512;83;20913;-80
2022/06/24 03:10:56;;;;;;;7.92;3.98;;;;;;;16.94;56.34;100821.09;1692375;83;21398;-80
2022/06/24 03:13:23;;;;;;;4.03;3.60;;;;;;;16.97;56.45;100822.74;1683240;84;20929;-80
2022/06/24 03:15:49;;;;;;;4.17;3.77;;;;;;;17.00;56.44;100827.84;1651490;84;21865;-80
2022/06/24 03:18:17;;;;;;;4.72;3.47;;;;;;;16.99;56.50;100828.76;1659170;85;21434;-80
2022/06/24 03:20:44;;;;;;;;;;;;;;;16.97;56.53;100826.66;1695962;84;21364;-80
2022/06/24 03:23:10;;;;;;;6.12;3.72;;;;;;;16.94;57.05;100832.86;1689459;83;20106;-80
2022/06/24 03:25:37;;;;;;;6.97;3.75;;;;;;;16.94;56.68;100828.09;1668358;84;21412;-80
2022/06/24 03:28:04;;;;;;;4.73;3.40;;;;;;;16.97;56.77;100834.50;1665014;85;21424;-80
2022/06/24 03:30:32;;;;;;;5.00;4.10;;;;;;;16.99;56.77;100830.91;1616463;87;21420;-80
2022/06/24 03:32:59;;;;;;;4.80;4.05;;;;;;;16.97;56.81;100828.82;1663046;85;21362;-80
2022/06/24 03:35:25;;;;;;;6.25;4.10;;;;;;;16.95;56.84;100829.33;1678271;83;20882;-80
2022/06/24 03:37:52;;;;;;;4.25;3.85;;;;;;;16.93;56.91;100824.63;1671737;83;21456;-80
2022/06/24 03:40:19;;;;;;;5.37;4.22;;;;;;;16.95;57.04;100822.80;1693661;83;21386;-80
2022/06/24 03:42:45;;;;;;;4.90;3.60;;;;;;;16.98;57.08;100824.45;1670777;84;20944;-80
2022/06/24 03:45:11;;;;;;;3.85;3.52;;;;;;;16.99;57.13;100824.38;1688466;83;22161;-80
2022/06/24 03:47:37;;;;;;;5.53;3.80;;;;;;;17.03;57.23;100823.36;1689434;83;21449;-80
2022/06/24 03:50:04;;;;;;;6.00;3.73;;;;;;;17.09;57.27;100822.27;1693697;83;20881;-80
2022/06/24 03:52:30;;;;;;;4.65;3.90;;;;;;;17.13;57.36;100824.70;1691276;83;21779;-80
2022/06/24 03:55:04;;;;;;;5.83;3.67;;;;;;;17.20;57.41;100832.66;1670645;84;21429;-80
2022/06/24 03:57:30;;;;;;;6.42;4.30;;;;;;;17.25;57.41;100824.63;1693307;83;20984;-80
2022/06/24 03:59:56;;;;;;;5.85;3.58;;;;;;;17.32;57.46;100821.31;1689240;83;21328;-78
2022/06/24 04:02:23;;;;;;;9.73;4.00;;;;;;;17.39;57.52;100823.63;1683385;83;20961;-77
2022/06/24 04:04:49;;;;;;;4.90;4.05;;;;;;;17.47;57.71;100828.08;1689563;83;21432;-77
2022/06/24 04:07:17;;;;;;;6.15;3.85;;;;;;;17.54;57.67;100828.69;1701755;82;20958;-82
2022/06/24 04:09:43;;;;;;;13.23;3.97;;;;;;;17.65;57.68;100825.62;1671752;84;20921;-81
2022/06/24 04:12:10;;;;;;;6.33;5.00;;;;;;;17.82;57.84;100829.23;1672008;84;20950;-81
2022/06/24 04:17:27;;;;;;;7.15;4.22;;;;;;;18.31;57.88;100830.16;1643327;85;21438;-79
2022/06/24 04:19:53;;;;;;;4.87;4.23;;;;;;;18.47;57.68;100821.55;1642337;85;21358;-80
2022/06/24 04:22:20;;;;;;;8.05;4.10;;;;;;;18.57;57.67;100827.22;1643911;86;20991;-80
2022/06/24 04:24:46;;;;;;;8.68;4.30;;;;;;;18.62;57.69;100817.41;1672352;84;20909;-80
2022/06/24 04:27:12;;;;;;;5.93;3.70;;;;;;;18.73;57.75;100819.51;1672499;84;20961;-80
2022/06/24 04:29:41;;;;;;;4.58;4.03;;;;;;;18.89;57.75;100820.95;1643941;86;21449;-80
2022/06/24 04:32:08;;;;;;;7.62;4.00;;;;;;;19.00;57.68;100822.61;1654169;84;21394;-80
2022/06/24 04:34:36;;;;;;;;;;;;;;;19.08;57.72;100820.02;1639223;87;21466;-80
2022/06/24 04:37:06;;;;;;;9.78;3.65;;;;;;;19.12;57.72;100819.41;1675498;84;20111;-79
2022/06/24 04:39:32;;;;;;;7.75;4.37;;;;;;;19.17;57.57;100823.50;1647980;85;20941;-79
2022/06/24 04:41:59;;;;;;;7.25;4.65;;;;;;;19.23;57.54;100816.27;1642774;85;20945;-79
2022/06/24 04:44:25;;;;;;;5.78;4.10;;;;;;;19.28;57.51;100821.64;1643728;86;20957;-79
2022/06/24 04:46:51;;;;;;;10.33;4.00;;;;;;;19.37;57.53;100825.12;1659488;84;21488;-78
2022/06/24 04:49:17;;;;;;;5.20;3.97;;;;;;;19.43;57.48;100822.20;1663254;84;21000;-78
2022/06/24 04:51:43;;;;;;;5.40;3.77;;;;;;;19.54;57.49;100824.33;1677796;84;20973;-78
2022/06/24 04:54:09;;;;;;;5.83;3.77;;;;;;;19.63;57.43;100824.34;1632334;85;20913;-78
2022/06/24 04:56:35;;;;;;;4.50;3.65;;;;;;;19.76;57.45;100820.98;1647375;84;21517;-78
2022/06/24 04:59:01;;;;;;;5.47;3.70;;;;;;;19.95;57.49;100826.15;1670026;84;20950;-78
2022/06/24 05:01:30;;;;;;;8.28;3.65;;;;;;;20.11;57.37;100821.81;1669734;84;20969;-78
2022/06/24 05:03:56;;;;;;;5.00;3.57;;;;;;;20.37;57.33;100829.59;1643972;85;20953;-78
2022/06/24 05:06:23;;;;;;;5.75;3.65;;;;;;;20.73;57.41;100825.49;1661049;84;20941;-78
2022/06/24 05:08:50;;;;;;;11.73;4.33;;;;;;;21.24;57.42;100825.31;1642713;85;21402;-78
2022/06/24 05:11:16;;;;;;;6.73;3.50;;;;;;;21.73;57.07;100821.52;1644209;85;20947;-78
2022/06/24 05:13:43;;;;;;;3.83;3.45;;;;;;;22.07;56.71;100819.50;1663111;84;20908;-78
2022/06/24 05:16:09;;;;;;;5.00;3.53;;;;;;;22.42;56.69;100819.48;1664958;84;20865;-78
2022/06/24 05:18:36;;;;;;;7.27;3.97;;;;;;;22.90;56.75;100814.70;1637104;85;21574;-78
2022/06/24 05:21:03;;;;;;;6.00;3.25;;;;;;;23.37;56.44;100820.86;1643989;85;20902;-78
2022/06/24 05:23:29;;;;;;;7.67;3.50;;;;;;;23.82;56.22;100816.58;1642532;86;20850;-78
2022/06/24 05:25:56;;;;;;;10.82;3.35;;;;;;;24.10;55.92;100815.03;1642818;87;20950;-78
2022/06/24 05:28:22;;;;;;;7.30;3.67;;;;;;;24.43;55.70;100817.16;1662197;84;20971;-78
2022/06/24 05:30:57;;;;;;;6.50;3.73;;;;;;;24.90;55.82;100824.31;1623650;87;21584;-78
2022/06/24 05:33:24;;;;;;;6.28;3.80;;;;;;;25.40;55.59;100818.44;1642608;87;20961;-78
2022/06/24 05:35:54;;;;;;;;;;;;;;;25.88;55.28;100814.37;1674450;84;20862;-78
2022/06/24 05:38:24;;;;;;;6.12;3.65;;;;;;;26.26;53.66;100814.02;1666776;84;20089;-78
2022/06/24 05:40:51;;;;;;;4.72;3.08;;;;;;;26.51;54.72;100811.16;1641342;85;20985;-78
2022/06/24 05:43:21;;;;;;;5.72;3.65;;;;;;;26.75;54.22;100816.28;1667234;84;20959;-78
2022/06/24 05:45:48;;;;;;;3.92;3.45;;;;;;;26.93;54.14;100814.80;1631237;87;20933;-78
2022/06/24 05:48:15;;;;;;;5.83;3.05;;;;;;;27.26;53.69;100817.83;1661100;84;20986;-79
2022/06/24 05:50:41;;;;;;;5.00;3.25;;;;;;;27.63;53.71;100818.27;1670282;84;20909;-79
2022/06/24 05:55:59;;;;;;;4.33;3.20;;;;;;;28.34;52.92;100821.90;1665209;84;20941;-79
2022/06/24 05:58:27;;;;;;;5.42;3.00;;;;;;;28.65;52.58;100819.17;1665278;84;20949;-79
2022/06/24 06:00:56;;;;;;;4.83;3.25;;;;;;;28.92;52.36;100822.56;1633782;85;20930;-79
2022/06/24 06:03:26;;;;;;;4.67;3.20;;;;;;;29.30;52.09;100829.23;1668848;84;21398;-79
2022/06/24 06:05:53;;;;;;;4.47;2.87;;;;;;;29.59;51.48;100820.42;1647432;85;20894;-79
2022/06/24 06:08:19;;;;;;;4.40;2.95;;;;;;;29.90;51.02;100812.55;1672053;84;20918;-79
2022/06/24 06:10:45;;;;;;;3.70;3.08;;;;;;;30.17;51.06;100809.59;1635268;85;20966;-79
2022/06/24 06:13:14;;;;;;;3.77;2.95;;;;;;;30.52;50.57;100815.56;1671931;84;20949;-79
2022/06/24 06:15:41;;;;;;;6.10;3.05;;;;;;;31.04;50.38;100814.47;1666578;83;21293;-79
2022/06/24 06:18:07;;;;;;;4.42;3.30;;;;;;;31.59;49.76;100818.65;1628893;87;20957;-79
2022/06/24 06:20:34;;;;;;;4.03;3.02;;;;;;;32.15;49.17;100821.86;1665830;84;20952;-79
2022/06/24 06:23:00;;;;;;;4.30;2.67;;;;;;;32.80;48.80;100820.80;1634567;86;20976;-78
2022/06/24 06:25:26;;;;;;;6.45;2.92;;;;;;;33.36;47.62;100822.73;1643072;85;20925;-78
2022/06/24 06:27:52;;;;;;;3.72;2.75;;;;;;;33.79;47.36;100819.36;1665931;84;20991;-78
2022/06/24 06:30:20;;;;;;;5.60;2.62;;;;;;;34.30;46.61;100817.22;1660784;84;20908;-78
2022/06/24 06:32:46;;;;;;;3.98;3.00;;;;;;;34.72;45.86;100823.58;1696920;83;20971;-78
2022/06/24 06:35:12;;;;;;;4.22;2.55;;;;;;;35.03;45.48;100816.84;1696126;83;20899;-79
2022/06/24 06:37:38;;;;;;;7.45;2.70;;;;;;;35.44;45.30;100816.86;1654092;84;21378;-79
2022/06/24 06:40:05;;;;;;;4.28;3.02;;;;;;;35.70;44.68;100812.94;1670721;84;20933;-78
2022/06/24 06:42:31;;;;;;;7.03;2.80;;;;;;;35.94;43.78;100812.69;1640634;85;20957;-78
2022/06/24 06:45:00;;;;;;;4.45;2.70;;;;;;;36.17;43.41;100812.60;1667388;84;20955;-78
2022/06/24 06:47:26;;;;;;;4.85;2.35;;;;;;;36.55;42.87;100806.57;1642521;85;20965;-78
2022/06/24 06:49:55;;;;;;;3.87;2.52;;;;;;;36.59;41.06;100805.17;1666498;84;20952;-79
2022/06/24 06:52:21;;;;;;;5.97;2.27;;;;;;;36.33;40.77;100802.17;1643455;86;21711;-78
2022/06/24 06:54:47;;;;;;;4.30;2.20;;;;;;;35.82;39.98;100796.70;1643492;86;20937;-78
2022/06/24 06:57:14;;;;;;;6.40;2.47;;;;;;;36.14;39.94;100795.47;1640584;87;20969;-78
2022/06/24 06:59:40;;;;;;;3.40;2.10;;;;;;;36.56;39.53;100794.77;1641148;87;21701;-78
2022/06/24 07:02:07;;;;;;;3.42;2.35;;;;;;;36.99;39.37;100796.17;1631471;85;20957;-78
2022/06/24 07:04:34;;;;;;;3.10;2.10;;;;;;;37.42;38.93;100791.11;1667376;84;20912;-78
2022/06/24 07:07:00;;;;;;;4.12;2.77;;;;;;;37.90;38.12;100794.45;1653280;85;20922;-78
2022/06/24 07:09:26;;;;;;;2.77;2.20;;;;;;;38.09;37.55;100778.33;1648832;85;20955;-78
2022/06/24 07:11:53;;;;;;;5.97;2.55;;;;;;;38.01;37.12;100782.55;1631813;85;21721;-78
2022/06/24 07:14:19;;;;;;;4.83;2.72;;;;;;;38.08;36.77;100774.48;1661896;84;20997;-78
2022/06/24 07:16:45;;;;;;;4.45;2.37;;;;;;;38.46;36.44;100772.70;1659943;85;20925;-78
2022/06/24 07:19:12;;;;;;;2.83;2.10;;;;;;;38.53;35.30;100773.01;1623088;86;20933;-78
2022/06/24 07:21:38;;;;;;;2.42;2.22;;;;;;;38.51;35.66;100776.95;1658708;84;20890;-78
2022/06/24 07:24:06;;;;;;;4.62;2.17;;;;;;;38.52;35.26;100769.16;1639680;86;20982;-78
2022/06/24 07:26:31;;;;;;;;;;;;;;;38.88;34.75;100765.64;1666406;85;20918;-78
2022/06/24 07:28:57;;;;;;;4.65;2.02;;;;;;;39.13;32.73;100765.87;1664016;85;20187;-78
2022/06/24 07:31:23;;;;;;;3.72;1.82;;;;;;;39.06;33.60;100760.45;1635795;84;20902;-78
2022/06/24 07:33:50;;;;;;;3.50;1.90;;;;;;;38.97;33.33;100759.52;1634059;86;20927;-78
2022/06/24 07:36:16;;;;;;;3.25;1.90;;;;;;;39.00;32.29;100759.90;1654751;85;20908;-78
2022/06/24 07:38:42;;;;;;;4.92;2.12;;;;;;;38.87;32.44;100759.08;1631447;86;21374;-78
2022/06/24 07:41:09;;;;;;;;;;;;;;;38.59;31.92;100747.91;1663265;84;20957;-78
2022/06/24 07:43:39;;;;;;;4.67;2.37;;;;;;;38.20;31.71;100752.66;1658108;84;20117;-78
2022/06/24 07:46:08;;;;;;;3.60;2.30;;;;;;;37.67;31.61;100756.94;1663324;86;20925;-78
2022/06/24 07:48:33;;;;;;;4.12;1.85;;;;;;;37.00;31.49;100752.01;1634233;87;20930;-78
2022/06/24 07:51:11;;;;;;;8.83;1.87;;;;;;;36.55;31.41;100760.77;1657961;86;20984;-78
2022/06/24 07:53:41;;;;;;;2.72;1.80;;;;;;;35.99;30.87;100747.02;1657171;85;20912;-80
2022/06/24 07:58:55;;;;;;;3.75;1.87;;;;;;;35.32;30.66;100747.08;1650037;85;20933;-80
2022/06/24 08:01:21;;;;;;;6.17;1.98;;;;;;;35.16;30.35;100736.44;1618873;87;21119;-80
2022/06/24 08:03:47;;;;;;;8.55;1.92;;;;;;;34.83;30.26;100738.58;1659612;85;20973;-80
2022/06/24 08:06:14;;;;;;;5.12;1.92;;;;;;;34.68;29.86;100741.66;1679366;84;20967;-81
2022/06/24 08:08:40;;;;;;;2.27;2.10;;;;;;;34.55;30.02;100737.38;1694531;83;21412;-81
2022/06/24 08:11:06;;;;;;;2.52;1.82;;;;;;;34.63;29.94;100732.80;1692560;83;20961;-81
2022/06/24 08:13:32;;;;;;;2.40;1.98;;;;;;;34.64;29.63;100735.81;1694917;83;23726;-81
2022/06/24 08:15:59;;;;;;;3.67;1.70;;;;;;;34.61;29.13;100730.80;1677560;84;21411;-81
2022/06/24 08:18:26;;;;;;;3.75;1.82;;;;;;;34.37;29.09;100733.11;1683659;83;20914;-80
2022/06/24 08:20:53;;;;;;;4.05;2.17;;;;;;;34.15;29.03;100732.55;1692126;83;20903;-80
2022/06/24 08:23:19;;;;;;;3.60;1.72;;;;;;;34.29;29.26;100720.23;1695482;82;20974;-80
2022/06/24 08:25:45;;;;;;;2.00;1.85;;;;;;;34.29;28.49;100725.10;1691204;83;20926;-81
2022/06/24 08:28:11;;;;;;;3.15;2.08;;;;;;;34.03;28.42;100720.02;1655378;84;20947;-80
2022/06/24 08:30:37;;;;;;;5.40;1.98;;;;;;;33.48;28.15;100719.50;1701640;82;21371;-80
2022/06/24 08:33:04;;;;;;;5.10;1.95;;;;;;;33.41;28.94;100705.61;1695938;83;20990;-80
2022/06/24 08:35:30;;;;;;;;;;;;;;;33.65;28.84;100718.97;1695890;83;21125;-80
2022/06/24 08:37:58;;;;;;;2.83;1.62;;;;;;;33.79;28.82;100706.22;1687160;82;20208;-80
2022/06/24 08:40:29;;;;;;;6.47;3.00;;;;;;;34.03;28.99;100698.55;1680931;83;22219;-80
2022/06/24 08:42:59;;;;;;;2.95;1.87;;;;;;;34.28;28.91;100698.42;1695297;82;21075;-80
2022/06/24 08:45:26;;;;;;;4.05;1.85;;;;;;;34.47;28.91;100698.82;1649798;84;21131;-80
2022/06/24 08:47:54;;;;;;;1.85;1.67;;;;;;;34.50;28.62;100697.63;1668748;84;20903;-80
2022/06/24 08:50:20;;;;;;;6.37;1.82;;;;;;;34.62;28.67;100695.37;1695139;82;20958;-80
2022/06/24 08:52:53;;;;;;;2.35;1.92;;;;;;;34.76;28.50;100681.16;1693527;83;20963;-80
2022/06/24 08:55:20;;;;;;;2.80;1.80;;;;;;;34.70;28.11;100681.37;1688558;83;20974;-80
2022/06/24 08:57:47;;;;;;;2.70;1.90;;;;;;;34.58;28.47;100676.59;1697520;82;20942;-80
2022/06/24 09:00:15;;;;;;;9.43;2.17;;;;;;;34.72;28.61;100675.31;1676740;83;21402;-80
2022/06/24 09:02:41;;;;;;;4.97;2.02;;;;;;;34.78;28.45;100679.97;1703187;82;21475;-80
2022/06/24 09:07:37;;;;;;;4.43;1.83;;;;;;;34.55;28.10;100666.20;1828194;77;22723;-81
2022/06/24 09:10:10;;;;;;;3.65;2.37;;;;;;;34.08;27.83;100673.87;1762579;79;20996;-81
2022/06/24 09:12:39;;;;;;;10.78;2.27;;;;;;;33.71;28.27;100670.00;1794353;79;21001;-81
2022/06/24 09:15:13;;;;;;;6.40;1.90;;;;;;;33.20;28.37;100665.92;1796653;79;21012;-81
2022/06/24 09:17:39;;;;;;;8.45;2.17;;;;;;;32.78;28.49;100661.59;1749167;80;20899;-81
2022/06/24 09:20:19;;;;;;;3.15;2.30;;;;;;;32.32;28.46;100668.89;1757838;80;20962;-81
2022/06/24 09:22:46;;;;;;;4.35;2.50;;;;;;;31.83;28.60;100656.19;1738266;80;20898;-81
2022/06/24 09:25:13;;;;;;;8.28;2.50;;;;;;;31.35;28.85;100660.77;1753775;79;21437;-80
2022/06/24 09:27:46;;;;;;;5.53;2.50;;;;;;;31.09;29.04;100662.09;1789407;79;20930;-81
2022/06/24 09:30:16;;;;;;;6.45;2.58;;;;;;;30.82;28.98;100658.20;1780212;79;21056;-81
2022/06/24 09:32:54;;;;;;;4.22;1.90;;;;;;;30.48;29.21;100658.89;1762877;80;21101;-81
2022/06/24 09:35:22;;;;;;;3.05;2.00;;;;;;;30.28;29.44;100658.67;1777738;78;20903;-81
2022/06/24 09:37:51;;;;;;;2.87;2.15;;;;;;;30.10;29.42;100652.50;1769554;79;20905;-81
2022/06/24 09:40:28;;;;;;;4.17;1.75;;;;;;;29.95;29.61;100652.12;1782278;78;21390;-81
2022/06/24 09:43:05;;;;;;;4.83;2.42;;;;;;;29.78;29.64;100641.75;1796347;78;20890;-81
2022/06/24 09:45:50;;;;;;;4.78;2.55;;;;;;;29.50;29.73;100644.91;1752595;79;20899;-81
2022/06/24 09:48:37;;;;;;;5.00;3.15;;;;;;;29.41;29.94;100639.12;1737820;79;20875;-80
2022/06/24 09:51:07;;;;;;;2.60;2.40;;;;;;;29.38;30.13;100630.05;1723077;81;21459;-80
2022/06/24 09:53:37;;;;;;;8.43;2.40;;;;;;;29.35;30.40;100630.84;1708500;82;20954;-81
2022/06/24 09:56:07;;;;;;;3.45;2.30;;;;;;;29.31;30.49;100636.95;1711766;82;21550;-81
2022/06/24 09:58:35;;;;;;;3.27;2.02;;;;;;;29.23;30.52;100644.81;1701316;82;21245;-81
2022/06/24 10:01:02;;;;;;;3.98;2.50;;;;;;;29.18;30.75;100638.59;1719554;82;20903;-81
2022/06/24 10:03:28;;;;;;;4.95;2.27;;;;;;;29.17;30.97;100640.91;1717687;81;21356;-81
2022/06/24 10:05:59;;;;;;;4.58;2.10;;;;;;;29.11;30.95;100633.52;1700676;82;20982;-81
2022/06/24 10:08:28;;;;;;;3.65;2.20;;;;;;;29.03;31.02;100625.89;1719194;82;21251;-81
2022/06/24 10:10:56;;;;;;;2.62;2.17;;;;;;;28.92;31.16;100626.40;1719965;82;21037;-81
2022/06/24 10:13:27;;;;;;;4.92;2.40;;;;;;;28.87;31.25;100629.14;1724965;82;21556;-81
2022/06/24 10:15:57;;;;;;;4.58;2.00;;;;;;;28.82;31.35;100616.75;1721917;81;20974;-81
2022/06/24 10:18:32;;;;;;;4.70;2.15;;;;;;;28.85;31.47;100627.95;1722935;81;21375;-81
2022/06/24 10:21:03;;;;;;;2.10;1.90;;;;;;;28.83;31.55;100619.76;1710300;82;20922;-81
2022/06/24 10:23:39;;;;;;;2.08;1.87;;;;;;;28.86;31.66;100621.64;1724206;82;20919;-81
2022/06/24 10:26:24;;;;;;;4.78;2.30;;;;;;;28.94;31.83;100617.78;1688906;82;20894;-81
2022/06/24 10:29:05;;;;;;;4.25;2.20;;;;;;;28.95;31.80;100610.63;1710975;81;20915;-81
2022/06/24 10:31:57;;;;;;;2.67;2.30;;;;;;;28.96;31.92;100610.49;1708220;82;20906;-81
2022/06/24 10:34:33;;;;;;;2.83;2.12;;;;;;;29.01;32.07;100611.89;1717532;83;20923;-81
2022/06/24 10:37:14;;;;;;;2.37;1.85;;;;;;;29.04;32.07;100604.45;1707806;82;20954;-81
2022/06/24 10:39:52;;;;;;;6.53;2.30;;;;;;;29.03;32.01;100597.94;1688468;82;20946;-81
2022/06/24 10:42:21;;;;;;;3.62;2.10;;;;;;;28.89;32.13;100588.58;1710483;82;20907;-81
2022/06/24 10:45:05;;;;;;;4.42;2.05;;;;;;;28.91;32.11;100587.94;1713729;82;20910;-81
2022/06/24 10:47:39;;;;;;;3.70;2.10;;;;;;;28.88;32.17;100582.41;1712590;82;21423;-81
2022/06/24 10:50:13;;;;;;;5.85;2.20;;;;;;;28.91;32.37;100577.30;1708798;82;21364;-81
2022/06/24 10:52:51;;;;;;;2.70;2.10;;;;;;;28.95;32.28;100575.53;1707609;82;20975;-81
2022/06/24 10:55:28;;;;;;;4.58;1.95;;;;;;;28.84;32.35;100576.19;1664476;84;20951;-81
2022/06/24 10:58:04;;;;;;;4.00;1.90;;;;;;;28.88;32.57;100582.41;1641988;84;20917;-81
2022/06/24 11:00:48;;;;;;;4.58;1.80;;;;;;;28.96;32.71;100578.55;1679120;84;20919;-81
2022/06/24 11:03:28;;;;;;;4.15;1.82;;;;;;;29.07;32.74;100578.03;1695584;83;20931;-81
2022/06/24 11:05:54;;;;;;;2.30;2.05;;;;;;;29.12;32.54;100575.25;1680780;83;21008;-81
2022/06/24 11:08:24;;;;;;;2.72;1.95;;;;;;;29.01;32.27;100581.27;1697120;83;21375;-81
2022/06/24 11:10:51;;;;;;;2.70;1.90;;;;;;;28.95;32.40;100575.53;1695340;83;21521;-81
2022/06/24 11:13:20;;;;;;;8.20;1.98;;;;;;;29.01;32.50;100574.61;1694707;83;20953;-82
2022/06/24 11:15:56;;;;;;;2.52;2.10;;;;;;;29.04;32.38;100572.50;1686926;83;21407;-81
2022/06/24 11:18:34;;;;;;;3.27;1.77;;;;;;;29.08;32.08;100573.05;1687001;83;21490;-81
2022/06/24 11:21:09;;;;;;;1.92;1.80;;;;;;;28.95;32.04;100568.87;1699289;83;21406;-81
2022/06/24 11:23:47;;;;;;;8.78;1.90;;;;;;;28.94;32.24;100562.36;1695473;83;21430;-81
2022/06/24 11:26:17;;;;;;;3.75;1.50;;;;;;;28.98;32.23;100561.09;1668082;83;20871;-81
2022/06/24 11:28:53;;;;;;;2.37;1.70;;;;;;;29.05;32.19;100557.36;1702006;83;21399;-81
2022/06/24 11:31:26;;;;;;;13.68;2.10;;;;;;;29.03;32.08;100546.86;1699279;83;20985;-81
2022/06/24 11:34:05;;;;;;;;;;;;;;;29.05;32.17;100546.71;1729368;81;21367;-81
2022/06/24 11:36:33;;;;;;;2.93;1.60;;;;;;;29.12;31.77;100555.28;1728356;82;20095;-81
2022/06/24 11:39:06;;;;;;;2.85;1.50;;;;;;;29.10;31.74;100541.79;1728082;81;21480;-81
2022/06/24 11:41:42;;;;;;;1.80;1.70;;;;;;;29.10;32.07;100551.95;1710083;82;21407;-81
2022/06/24 11:44:08;;;;;;;1.85;1.67;;;;;;;29.18;31.44;100541.87;1708081;82;21466;-81
2022/06/24 11:46:34;;;;;;;3.73;1.50;;;;;;;29.07;30.29;100544.25;1710876;82;20933;-81
2022/06/24 11:49:11;;;;;;;4.83;1.60;;;;;;;28.97;31.64;100532.30;1713968;82;20957;-81